createdAt,value
2016-03-26T00:00:59.782Z,99.99
2016-03-26T00:01:59.753Z,99.99
2016-03-26T00:02:59.740Z,99.99
2016-03-26T00:03:59.727Z,99.99
2016-03-26T00:04:59.715Z,99.99
2016-03-26T00:05:59.702Z,99.99
2016-03-26T00:06:59.705Z,99.99
2016-03-26T00:07:59.661Z,99.99
2016-03-26T00:08:59.647Z,99.99
2016-03-26T00:09:59.634Z,99.99
2016-03-26T00:10:59.622Z,99.99
2016-03-26T00:11:59.593Z,99.99
2016-03-26T00:12:59.580Z,99.99
2016-03-26T00:13:59.567Z,99.99
2016-03-26T00:14:59.538Z,99.99
2016-03-26T00:15:59.541Z,99.99
2016-03-26T00:16:59.513Z,99.99
2016-03-26T00:17:59.499Z,99.99
2016-03-26T00:18:59.471Z,99.99
2016-03-26T00:19:59.458Z,99.99
2016-03-26T00:20:59.445Z,99.99
2016-03-26T00:21:59.432Z,99.99
2016-03-26T00:22:59.418Z,99.99
2016-03-26T00:23:59.406Z,99.99
2016-03-26T00:24:59.393Z,99.99
2016-03-26T00:25:59.365Z,99.99
2016-03-26T00:26:59.352Z,99.99
2016-03-26T00:27:59.323Z,99.99
2016-03-26T00:28:59.310Z,99.99
2016-03-26T00:29:59.297Z,99.99
2016-03-26T00:30:59.284Z,99.99
2016-03-26T00:31:59.272Z,99.99
2016-03-26T00:32:59.242Z,99.99
2016-03-26T00:33:59.230Z,99.99
2016-03-26T00:34:59.217Z,99.99
2016-03-26T00:35:59.220Z,99.99
2016-03-26T00:36:59.175Z,99.99
2016-03-26T00:37:59.164Z,99.99
2016-03-26T00:38:59.150Z,99.99
2016-03-26T00:39:59.121Z,99.99
2016-03-26T00:40:59.108Z,99.99
2016-03-26T00:41:59.084Z,99.99
2016-03-26T00:42:59.101Z,99.99
2016-03-26T00:43:59.058Z,99.99
2016-03-26T00:44:58.873Z,99.99
2016-03-26T00:45:59.017Z,99.99
2016-03-26T00:46:59.003Z,99.99
2016-03-26T00:47:58.987Z,99.99
2016-03-26T00:48:58.959Z,99.99
2016-03-26T00:49:58.947Z,99.99
2016-03-26T00:50:58.933Z,99.99
2016-03-26T00:51:58.920Z,99.99
2016-03-26T00:52:58.891Z,99.99
2016-03-26T00:53:58.895Z,99.99
2016-03-26T00:54:58.866Z,99.99
2016-03-26T00:55:58.853Z,99.99
2016-03-26T00:56:58.933Z,99.99
2016-03-26T00:57:58.827Z,99.99
2016-03-26T00:58:58.799Z,99.99
2016-03-26T00:59:58.786Z,99.99
2016-03-26T01:00:58.772Z,99.99
2016-03-26T01:01:58.744Z,99.99
2016-03-26T01:02:58.732Z,99.99
2016-03-26T01:03:58.719Z,99.99
2016-03-26T01:04:58.690Z,99.99
2016-03-26T01:05:58.676Z,99.99
2016-03-26T01:06:58.663Z,99.99
2016-03-26T01:07:58.636Z,99.99
2016-03-26T01:08:58.623Z,99.99
2016-03-26T01:09:58.610Z,99.99
2016-03-26T01:10:58.597Z,99.99
2016-03-26T01:11:58.584Z,99.99
2016-03-26T01:12:58.556Z,99.99
2016-03-26T01:13:58.544Z,99.99
2016-03-26T01:14:58.530Z,99.99
2016-03-26T01:15:58.518Z,99.99
2016-03-26T01:16:58.489Z,99.99
2016-03-26T01:17:58.491Z,99.99
2016-03-26T01:18:58.446Z,99.99
2016-03-26T01:19:58.434Z,99.99
2016-03-26T01:20:58.421Z,99.99
2016-03-26T01:21:58.409Z,99.99
2016-03-26T01:22:58.379Z,99.99
2016-03-26T01:23:58.367Z,99.99
2016-03-26T01:24:58.354Z,99.99
2016-03-26T01:25:58.325Z,99.99
2016-03-26T01:26:58.687Z,99.99
2016-03-26T01:27:58.300Z,99.99
2016-03-26T01:28:58.270Z,99.99
2016-03-26T01:29:58.273Z,99.99
2016-03-26T01:30:58.245Z,99.99
2016-03-26T01:31:58.232Z,99.99
2016-03-26T01:32:58.204Z,99.99
2016-03-26T01:33:58.190Z,99.99
2016-03-26T01:34:58.178Z,99.99
2016-03-26T01:35:58.164Z,99.99
2016-03-26T01:36:58.136Z,99.99
2016-03-26T01:37:58.122Z,99.99
2016-03-26T01:38:58.110Z,99.99
2016-03-26T01:39:58.082Z,99.99
2016-03-26T01:40:58.068Z,99.99
2016-03-26T01:41:58.166Z,99.99
2016-03-26T01:42:58.027Z,99.99
2016-03-26T01:43:57.858Z,99.99
2016-03-26T01:44:58.002Z,99.99
2016-03-26T01:45:57.974Z,99.99
2016-03-26T01:46:57.960Z,99.99
2016-03-26T01:47:57.946Z,99.99
2016-03-26T01:48:57.918Z,99.99
2016-03-26T01:49:57.921Z,99.99
2016-03-26T01:50:57.893Z,99.99
2016-03-26T01:51:57.879Z,99.99
2016-03-26T01:52:57.867Z,99.99
2016-03-26T01:53:57.838Z,99.99
2016-03-26T01:54:57.825Z,99.99
2016-03-26T01:55:57.812Z,99.99
2016-03-26T01:56:57.784Z,99.99
2016-03-26T01:57:57.770Z,99.99
2016-03-26T01:58:57.742Z,99.99
2016-03-26T01:59:57.728Z,99.99
2016-03-26T02:00:57.716Z,99.99
2016-03-26T02:01:57.688Z,99.99
2016-03-26T02:02:57.690Z,99.99
2016-03-26T02:03:58.022Z,99.99
2016-03-26T02:04:57.650Z,99.99
2016-03-26T02:05:57.620Z,99.99
2016-03-26T02:06:57.639Z,99.99
2016-03-26T02:07:57.578Z,99.99
2016-03-26T02:08:57.566Z,99.99
2016-03-26T02:09:57.584Z,99.99
2016-03-26T02:10:57.540Z,99.99
2016-03-26T02:11:57.527Z,99.99
2016-03-26T02:12:57.499Z,99.99
2016-03-26T02:13:57.486Z,99.99
2016-03-26T02:14:57.457Z,99.99
2016-03-26T02:15:57.460Z,99.99
2016-03-26T02:16:57.432Z,99.99
2016-03-26T02:17:57.419Z,99.99
2016-03-26T02:18:57.390Z,99.99
2016-03-26T02:19:57.377Z,99.99
2016-03-26T02:20:57.348Z,99.99
2016-03-26T02:21:57.335Z,99.99
2016-03-26T02:22:57.323Z,99.99
2016-03-26T02:23:57.293Z,99.99
2016-03-26T02:24:57.281Z,99.99
2016-03-26T02:25:57.267Z,99.99
2016-03-26T02:26:57.239Z,99.99
2016-03-26T02:27:57.226Z,99.99
2016-03-26T02:28:57.214Z,99.99
2016-03-26T02:29:57.185Z,99.99
2016-03-26T02:30:57.173Z,99.99
2016-03-26T02:31:57.159Z,99.99
2016-03-26T02:32:57.146Z,99.99
2016-03-26T02:33:57.117Z,99.99
2016-03-26T02:34:57.120Z,99.99
2016-03-26T02:35:57.075Z,99.99
2016-03-26T02:36:57.078Z,99.99
2016-03-26T02:37:57.050Z,99.99
2016-03-26T02:38:57.068Z,99.99
2016-03-26T02:39:57.009Z,99.99
2016-03-26T02:40:56.996Z,99.99
2016-03-26T02:41:56.967Z,99.99
2016-03-26T02:42:56.954Z,99.99
2016-03-26T02:43:56.941Z,99.99
2016-03-26T02:44:56.928Z,99.99
2016-03-26T02:45:56.916Z,99.99
2016-03-26T02:46:56.887Z,99.99
2016-03-26T02:47:56.858Z,99.99
2016-03-26T02:48:56.861Z,99.99
2016-03-26T02:49:56.832Z,99.99
2016-03-26T02:50:56.819Z,99.99
2016-03-26T02:51:56.790Z,99.99
2016-03-26T02:52:56.779Z,99.99
2016-03-26T02:53:56.765Z,99.99
2016-03-26T02:54:56.737Z,99.99
2016-03-26T02:55:56.724Z,99.99
2016-03-26T02:56:56.710Z,99.99
2016-03-26T02:57:56.682Z,99.99
2016-03-26T02:58:56.670Z,99.99
2016-03-26T02:59:56.640Z,99.99
2016-03-26T03:00:56.628Z,99.99
2016-03-26T03:01:56.615Z,99.99
2016-03-26T03:02:56.602Z,99.99
2016-03-26T03:03:56.573Z,99.99
2016-03-26T03:04:56.561Z,99.99
2016-03-26T03:05:56.532Z,99.99
2016-03-26T03:06:56.519Z,99.99
2016-03-26T03:07:56.506Z,99.99
2016-03-26T03:08:56.478Z,99.99
2016-03-26T03:09:56.464Z,99.99
2016-03-26T03:10:56.452Z,99.99
2016-03-26T03:11:56.422Z,99.99
2016-03-26T03:12:56.442Z,99.99
2016-03-26T03:13:56.413Z,99.99
2016-03-26T03:14:56.383Z,99.99
2016-03-26T03:15:56.355Z,99.99
2016-03-26T03:16:56.374Z,99.99
2016-03-26T03:17:56.330Z,99.99
2016-03-26T03:18:56.301Z,99.99
2016-03-26T03:19:56.288Z,99.99
2016-03-26T03:20:56.260Z,99.99
2016-03-26T03:21:56.246Z,99.99
2016-03-26T03:22:56.234Z,99.99
2016-03-26T03:23:56.205Z,99.99
2016-03-26T03:24:56.192Z,99.99
2016-03-26T03:25:56.163Z,99.99
2016-03-26T03:26:56.166Z,99.99
2016-03-26T03:27:56.137Z,99.99
2016-03-26T03:28:56.125Z,99.99
2016-03-26T03:29:56.096Z,99.99
2016-03-26T03:30:56.084Z,99.99
2016-03-26T03:31:56.070Z,99.99
2016-03-26T03:32:56.042Z,99.99
2016-03-26T03:33:56.028Z,99.99
2016-03-26T03:34:56.001Z,99.99
2016-03-26T03:35:55.988Z,99.99
2016-03-26T03:36:55.975Z,99.99
2016-03-26T03:37:55.946Z,99.99
2016-03-26T03:38:55.934Z,99.99
2016-03-26T03:39:55.905Z,99.99
2016-03-26T03:40:55.892Z,99.99
2016-03-26T03:41:55.879Z,99.99
2016-03-26T03:42:55.851Z,99.99
2016-03-26T03:43:55.853Z,99.99
2016-03-26T03:44:55.825Z,99.99
2016-03-26T03:45:55.796Z,99.99
2016-03-26T03:46:55.783Z,99.99
2016-03-26T03:47:55.769Z,99.99
2016-03-26T03:48:55.757Z,99.99
2016-03-26T03:49:55.744Z,99.99
2016-03-26T03:50:55.716Z,99.99
2016-03-26T03:51:55.687Z,99.99
2016-03-26T03:52:55.658Z,99.99
2016-03-26T03:53:55.661Z,99.99
2016-03-26T03:54:55.648Z,99.99
2016-03-26T03:55:55.619Z,99.99
2016-03-26T03:56:55.591Z,99.99
2016-03-26T03:57:55.578Z,99.99
2016-03-26T03:58:55.550Z,99.99
2016-03-26T03:59:55.537Z,99.99
2016-03-26T04:00:55.523Z,99.99
2016-03-26T04:01:55.496Z,99.99
2016-03-26T04:02:55.482Z,99.99
2016-03-26T04:03:55.515Z,99.99
2016-03-26T04:04:55.440Z,99.99
2016-03-26T04:05:55.428Z,99.99
2016-03-26T04:06:55.414Z,99.99
2016-03-26T04:07:55.402Z,99.99
2016-03-26T04:08:55.373Z,99.99
2016-03-26T04:09:55.360Z,99.99
2016-03-26T04:10:55.332Z,99.99
2016-03-26T04:11:55.319Z,99.99
2016-03-26T04:12:55.289Z,99.99
2016-03-26T04:13:55.278Z,99.99
2016-03-26T04:14:55.249Z,99.99
2016-03-26T04:15:55.236Z,99.99
2016-03-26T04:16:55.223Z,99.99
2016-03-26T04:17:55.194Z,99.99
2016-03-26T04:18:55.181Z,99.99
2016-03-26T04:19:55.184Z,99.99
2016-03-26T04:20:55.140Z,99.99
2016-03-26T04:21:55.127Z,99.99
2016-03-26T04:22:55.113Z,99.99
2016-03-26T04:23:55.102Z,99.99
2016-03-26T04:24:55.072Z,99.99
2016-03-26T04:25:55.060Z,99.99
2016-03-26T04:26:55.031Z,99.99
2016-03-26T04:27:55.018Z,99.99
2016-03-26T04:28:54.990Z,99.99
2016-03-26T04:29:54.976Z,99.99
2016-03-26T04:30:54.948Z,99.99
2016-03-26T04:31:54.951Z,99.99
2016-03-26T04:32:54.923Z,99.99
2016-03-26T04:33:54.909Z,99.99
2016-03-26T04:34:54.724Z,99.99
2016-03-26T04:35:54.868Z,99.99
2016-03-26T04:36:54.839Z,99.99
2016-03-26T04:37:54.826Z,99.99
2016-03-26T04:38:54.798Z,99.99
2016-03-26T04:39:54.784Z,99.99
2016-03-26T04:40:54.773Z,99.99
2016-03-26T04:41:54.743Z,99.99
2016-03-26T04:42:54.730Z,99.99
2016-03-26T04:43:54.702Z,99.99
2016-03-26T04:44:54.705Z,99.99
2016-03-26T04:45:54.664Z,99.99
2016-03-26T04:46:54.668Z,99.99
2016-03-26T04:47:54.638Z,99.99
2016-03-26T04:48:54.625Z,99.99
2016-03-26T04:49:54.613Z,99.99
2016-03-26T04:50:54.584Z,99.99
2016-03-26T04:51:54.570Z,99.99
2016-03-26T04:52:54.543Z,99.99
2016-03-26T04:53:54.529Z,99.99
2016-03-26T04:54:54.501Z,99.99
2016-03-26T04:55:54.487Z,99.99
2016-03-26T04:56:54.459Z,99.99
2016-03-26T04:57:54.461Z,99.99
2016-03-26T04:58:54.434Z,99.99
2016-03-26T04:59:54.420Z,99.99
2016-03-26T05:00:54.391Z,99.99
2016-03-26T05:01:54.379Z,99.99
2016-03-26T05:02:54.350Z,99.99
2016-03-26T05:03:54.353Z,99.99
2016-03-26T05:04:54.309Z,99.99
2016-03-26T05:05:54.296Z,99.99
2016-03-26T05:06:54.283Z,99.99
2016-03-26T05:07:54.255Z,99.99
2016-03-26T05:08:54.241Z,99.99
2016-03-26T05:09:54.213Z,99.99
2016-03-26T05:10:54.200Z,99.99
2016-03-26T05:11:54.172Z,99.99
2016-03-26T05:12:54.237Z,99.99
2016-03-26T05:13:54.130Z,99.99
2016-03-26T05:14:54.118Z,99.99
2016-03-26T05:15:54.104Z,99.99
2016-03-26T05:16:54.075Z,99.99
2016-03-26T05:17:54.078Z,99.99
2016-03-26T05:18:54.049Z,99.99
2016-03-26T05:19:54.021Z,99.99
2016-03-26T05:20:54.009Z,99.99
2016-03-26T05:21:53.995Z,99.99
2016-03-26T05:22:53.967Z,99.99
2016-03-26T05:23:53.954Z,99.99
2016-03-26T05:24:53.925Z,99.99
2016-03-26T05:25:53.912Z,99.99
2016-03-26T05:26:53.900Z,99.99
2016-03-26T05:27:53.917Z,99.99
2016-03-26T05:28:53.859Z,99.99
2016-03-26T05:29:53.845Z,99.99
2016-03-26T05:30:53.816Z,99.99
2016-03-26T05:31:53.804Z,99.99
2016-03-26T05:32:53.791Z,99.99
2016-03-26T05:33:53.777Z,99.99
2016-03-26T05:34:53.749Z,99.99
2016-03-26T05:35:53.720Z,99.99
2016-03-26T05:36:53.707Z,99.99
2016-03-26T05:37:53.695Z,99.99
2016-03-26T05:38:53.666Z,99.99
2016-03-26T05:39:53.653Z,99.99
2016-03-26T05:40:53.641Z,99.99
2016-03-26T05:41:53.611Z,99.99
2016-03-26T05:42:53.660Z,99.99
2016-03-26T05:43:53.571Z,99.99
2016-03-26T05:44:53.557Z,99.99
2016-03-26T05:45:53.529Z,99.99
2016-03-26T05:46:53.532Z,99.99
2016-03-26T05:47:53.502Z,99.99
2016-03-26T05:48:53.474Z,99.99
2016-03-26T05:49:53.462Z,99.99
2016-03-26T05:50:53.432Z,99.99
2016-03-26T05:51:53.435Z,99.99
2016-03-26T05:52:53.457Z,99.99
2016-03-26T05:53:53.429Z,99.99
2016-03-26T05:54:53.371Z,99.99
2016-03-26T05:55:53.343Z,99.99
2016-03-26T05:56:54.008Z,99.99
2016-03-26T05:57:53.309Z,99.99
2016-03-26T05:58:53.295Z,99.99
2016-03-26T05:59:53.266Z,99.99
2016-03-26T06:00:53.253Z,99.99
2016-03-26T06:01:53.225Z,99.99
2016-03-26T06:02:53.212Z,99.99
2016-03-26T06:03:53.199Z,99.99
2016-03-26T06:04:53.186Z,99.99
2016-03-26T06:05:53.168Z,99.99
2016-03-26T06:06:53.131Z,99.99
2016-03-26T06:07:53.113Z,99.99
2016-03-26T06:08:53.076Z,99.99
2016-03-26T06:09:53.055Z,99.99
2016-03-26T06:10:53.037Z,99.99
2016-03-26T06:11:53.021Z,99.99
2016-03-26T06:12:53.005Z,99.99
2016-03-26T06:13:52.974Z,99.99
2016-03-26T06:14:52.957Z,99.99
2016-03-26T06:15:52.942Z,99.99
2016-03-26T06:16:52.928Z,99.01
2016-03-26T06:17:52.945Z,97.78
2016-03-26T06:18:52.900Z,98.16
2016-03-26T06:19:52.887Z,96.97
2016-03-26T06:20:52.873Z,96.22
2016-03-26T06:21:52.860Z,95.17
2016-03-26T06:22:52.846Z,96.22
2016-03-26T06:23:52.832Z,94.03
2016-03-26T06:24:52.819Z,93.18
2016-03-26T06:25:52.806Z,92.47
2016-03-26T06:26:52.793Z,91.8
2016-03-26T06:27:52.781Z,90.8
2016-03-26T06:28:52.768Z,89.47
2016-03-26T06:29:52.770Z,88.76
2016-03-26T06:30:52.741Z,87.81
2016-03-26T06:31:52.729Z,86.29
2016-03-26T06:32:52.716Z,85.28
2016-03-26T06:33:52.702Z,85.38
2016-03-26T06:34:52.689Z,85.57
2016-03-26T06:35:52.692Z,85.19
2016-03-26T06:36:52.680Z,84.33
2016-03-26T06:37:52.666Z,82.28
2016-03-26T06:38:52.654Z,80.47
2016-03-26T06:39:52.640Z,78.42
2016-03-26T06:40:52.643Z,77.42
2016-03-26T06:41:52.615Z,76.18
2016-03-26T06:42:52.446Z,77.09
2016-03-26T06:43:52.604Z,77.85
2016-03-26T06:44:52.592Z,77.91
2016-03-26T06:45:52.579Z,78.04
2016-03-26T06:46:52.565Z,77.85
2016-03-26T06:47:52.569Z,76.71
2016-03-26T06:48:52.556Z,76.37
2016-03-26T06:49:52.558Z,76.75
2016-03-26T06:50:52.546Z,76.52
2016-03-26T06:51:52.532Z,76.71
2016-03-26T06:52:52.520Z,76.65
2016-03-26T06:53:52.522Z,75.79
2016-03-26T06:54:52.509Z,75.36
2016-03-26T06:55:52.512Z,75.26
2016-03-26T06:56:52.498Z,74.44
2016-03-26T06:57:52.486Z,73.05
2016-03-26T06:58:52.503Z,72.09
2016-03-26T06:59:52.492Z,72.09
2016-03-26T07:00:52.478Z,71.08
2016-03-26T07:01:52.466Z,70.03
2016-03-26T07:02:52.484Z,69.56
2016-03-26T07:03:52.471Z,67.77
2016-03-26T07:04:52.458Z,68.06
2016-03-26T07:05:52.461Z,67.97
2016-03-26T07:06:52.432Z,67.87
2016-03-26T07:07:52.435Z,67.24
2016-03-26T07:08:52.438Z,66.79
2016-03-26T07:09:52.441Z,66.13
2016-03-26T07:10:52.427Z,65.45
2016-03-26T07:11:52.429Z,65.45
2016-03-26T07:12:52.433Z,65.17
2016-03-26T07:13:52.419Z,64.25
2016-03-26T07:14:52.421Z,63.67
2016-03-26T07:15:52.410Z,62.55
2016-03-26T07:16:52.412Z,62.17
2016-03-26T07:17:52.399Z,61.6
2016-03-26T07:18:52.402Z,62.27
2016-03-26T07:19:52.404Z,61.41
2016-03-26T07:20:52.407Z,60.77
2016-03-26T07:21:52.410Z,59.27
2016-03-26T07:22:52.397Z,59.11
2016-03-26T07:23:52.384Z,61.08
2016-03-26T07:24:52.387Z,60.8
2016-03-26T07:25:52.390Z,60.86
2016-03-26T07:26:52.392Z,61.31
2016-03-26T07:27:52.378Z,61.12
2016-03-26T07:28:52.382Z,61.79
2016-03-26T07:29:52.384Z,61.63
2016-03-26T07:30:52.386Z,60.77
2016-03-26T07:31:52.375Z,61.02
2016-03-26T07:32:52.377Z,61.69
2016-03-26T07:33:52.380Z,60.86
2016-03-26T07:34:52.383Z,60.86
2016-03-26T07:35:52.369Z,61.02
2016-03-26T07:36:52.388Z,60.67
2016-03-26T07:37:52.375Z,60.67
2016-03-26T07:38:52.377Z,60.77
2016-03-26T07:39:52.364Z,61.22
2016-03-26T07:40:52.367Z,61.66
2016-03-26T07:41:52.355Z,61.22
2016-03-26T07:42:52.357Z,61.12
2016-03-26T07:43:52.360Z,60.96
2016-03-26T07:44:52.347Z,61.05
2016-03-26T07:45:52.349Z,60.93
2016-03-26T07:46:52.351Z,61.15
2016-03-26T07:47:52.340Z,60.41
2016-03-26T07:48:52.342Z,59.36
2016-03-26T07:49:52.345Z,60.29
2016-03-26T07:50:52.348Z,61.22
2016-03-26T07:51:52.334Z,61.69
2016-03-26T07:52:52.337Z,61.15
2016-03-26T07:53:52.356Z,60
2016-03-26T07:54:52.342Z,60.13
2016-03-26T07:55:52.329Z,59.65
2016-03-26T07:56:52.332Z,59.45
2016-03-26T07:57:52.335Z,58.98
2016-03-26T07:58:52.338Z,58.69
2016-03-26T07:59:52.340Z,58.98
2016-03-26T08:00:52.328Z,59.52
2016-03-26T08:01:52.330Z,59.33
2016-03-26T08:02:52.316Z,59.62
2016-03-26T08:03:52.336Z,58.5
2016-03-26T08:04:52.322Z,57.86
2016-03-26T08:05:52.309Z,57.95
2016-03-26T08:06:52.312Z,57.86
2016-03-26T08:07:52.314Z,58.05
2016-03-26T08:08:52.317Z,56.61
2016-03-26T08:09:52.320Z,56.9
2016-03-26T08:10:52.307Z,57.28
2016-03-26T08:11:52.310Z,56.99
2016-03-26T08:12:52.297Z,57.86
2016-03-26T08:13:52.299Z,57.86
2016-03-26T08:14:52.302Z,56.71
2016-03-26T08:15:52.305Z,56.54
2016-03-26T08:16:52.308Z,56.35
2016-03-26T08:17:52.295Z,56.13
2016-03-26T08:18:52.297Z,56.32
2016-03-26T08:19:52.285Z,57.28
2016-03-26T08:20:52.287Z,55.94
2016-03-26T08:21:52.290Z,55.56
2016-03-26T08:22:52.293Z,55.27
2016-03-26T08:23:52.279Z,55.56
2016-03-26T08:24:52.282Z,57.45
2016-03-26T08:25:52.285Z,56.42
2016-03-26T08:26:52.288Z,55.85
2016-03-26T08:27:52.290Z,55.75
2016-03-26T08:28:52.278Z,55.58
2016-03-26T08:29:52.281Z,56.61
2016-03-26T08:30:52.283Z,55.58
2016-03-26T08:31:52.270Z,55.87
2016-03-26T08:32:52.273Z,54.75
2016-03-26T08:33:52.275Z,53.24
2016-03-26T08:34:52.278Z,52.86
2016-03-26T08:35:52.264Z,51.83
2016-03-26T08:36:52.268Z,51.83
2016-03-26T08:37:52.270Z,52
2016-03-26T08:38:52.257Z,52.09
2016-03-26T08:39:52.261Z,52.19
2016-03-26T08:40:52.251Z,53.31
2016-03-26T08:41:52.254Z,53.24
2016-03-26T08:42:52.257Z,52.95
2016-03-26T08:43:52.259Z,52.76
2016-03-26T08:44:52.262Z,51.64
2016-03-26T08:45:52.264Z,51.67
2016-03-26T08:46:52.251Z,50.8
2016-03-26T08:47:52.254Z,50.7
2016-03-26T08:48:52.256Z,50.32
2016-03-26T08:49:52.260Z,49.57
2016-03-26T08:50:52.247Z,49.57
2016-03-26T08:51:52.250Z,49.19
2016-03-26T08:52:52.252Z,49.84
2016-03-26T08:53:52.239Z,49.84
2016-03-26T08:54:52.258Z,49.74
2016-03-26T08:55:52.244Z,49.55
2016-03-26T08:56:52.248Z,48.4
2016-03-26T08:57:52.250Z,48.57
2016-03-26T08:58:52.253Z,48.4
2016-03-26T08:59:52.241Z,48.11
2016-03-26T09:00:52.243Z,48.59
2016-03-26T09:01:52.245Z,47.85
2016-03-26T09:02:52.248Z,48.52
2016-03-26T09:03:52.235Z,47.75
2016-03-26T09:04:52.238Z,47.66
2016-03-26T09:05:52.240Z,47.77
2016-03-26T09:06:52.243Z,47.8
2016-03-26T09:07:52.245Z,46.26
2016-03-26T09:08:52.233Z,45.49
2016-03-26T09:09:52.235Z,45.61
2016-03-26T09:10:52.238Z,44.57
2016-03-26T09:11:52.241Z,44.86
2016-03-26T09:12:52.243Z,44.55
2016-03-26T09:13:52.231Z,44.91
2016-03-26T09:14:52.233Z,45.08
2016-03-26T09:15:52.236Z,45.54
2016-03-26T09:16:52.239Z,45.35
2016-03-26T09:17:52.242Z,45.01
2016-03-26T09:18:52.228Z,45.56
2016-03-26T09:19:52.231Z,46.19
2016-03-26T09:20:52.234Z,47.15
2016-03-26T09:21:52.236Z,46.86
2016-03-26T09:22:52.239Z,46.23
2016-03-26T09:23:52.226Z,45.81
2016-03-26T09:24:52.244Z,46
2016-03-26T09:25:52.231Z,46.38
2016-03-26T09:26:52.234Z,45.25
2016-03-26T09:27:52.236Z,45.32
2016-03-26T09:28:52.224Z,45.35
2016-03-26T09:29:52.227Z,45.64
2016-03-26T09:30:52.229Z,46.21
2016-03-26T09:31:52.232Z,45.92
2016-03-26T09:32:52.235Z,46.5
2016-03-26T09:33:52.222Z,47.25
2016-03-26T09:34:52.240Z,47.63
2016-03-26T09:35:52.227Z,46.59
2016-03-26T09:36:52.230Z,46.31
2016-03-26T09:37:52.217Z,45.85
2016-03-26T09:38:52.220Z,45.66
2016-03-26T09:39:52.207Z,44.65
2016-03-26T09:40:52.225Z,45.66
2016-03-26T09:41:52.228Z,45.76
2016-03-26T09:42:52.215Z,45.95
2016-03-26T09:43:52.217Z,45.76
2016-03-26T09:44:52.220Z,46.41
2016-03-26T09:45:52.222Z,47.56
2016-03-26T09:46:52.209Z,45.66
2016-03-26T09:47:52.212Z,45.01
2016-03-26T09:48:52.214Z,45.2
2016-03-26T09:49:52.217Z,44.45
2016-03-26T09:50:52.205Z,44.07
2016-03-26T09:51:52.208Z,43.97
2016-03-26T09:52:52.210Z,44.84
2016-03-26T09:53:52.213Z,44.65
2016-03-26T09:54:52.200Z,44.55
2016-03-26T09:55:52.203Z,44.93
2016-03-26T09:56:52.205Z,44.82
2016-03-26T09:57:52.208Z,45.42
2016-03-26T09:58:52.211Z,44.55
2016-03-26T09:59:52.197Z,44.72
2016-03-26T10:00:52.200Z,44.65
2016-03-26T10:01:52.203Z,45.03
2016-03-26T10:02:52.205Z,45.29
2016-03-26T10:03:52.209Z,46.59
2016-03-26T10:04:52.211Z,46.48
2016-03-26T10:05:52.213Z,46.59
2016-03-26T10:06:52.201Z,46.33
2016-03-26T10:07:52.204Z,46.23
2016-03-26T10:08:52.191Z,47.75
2016-03-26T10:09:52.193Z,47.27
2016-03-26T10:10:52.196Z,47.56
2016-03-26T10:11:52.198Z,47.75
2016-03-26T10:12:52.202Z,47.27
2016-03-26T10:13:52.251Z,47.27
2016-03-26T10:14:52.192Z,46.89
2016-03-26T10:15:52.195Z,48.23
2016-03-26T10:16:52.198Z,47.36
2016-03-26T10:17:52.184Z,46.43
2016-03-26T10:18:52.186Z,46.84
2016-03-26T10:19:52.189Z,45.78
2016-03-26T10:20:52.223Z,46.43
2016-03-26T10:21:52.195Z,46.31
2016-03-26T10:22:52.181Z,47.44
2016-03-26T10:23:52.184Z,47.63
2016-03-26T10:24:52.187Z,47.75
2016-03-26T10:25:52.189Z,47.66
2016-03-26T10:26:52.192Z,46.62
2016-03-26T10:27:52.180Z,46.69
2016-03-26T10:28:52.214Z,47.72
2016-03-26T10:29:52.169Z,47.44
2016-03-26T10:30:52.188Z,46.41
2016-03-26T10:31:52.174Z,47.66
2016-03-26T10:32:52.177Z,47.27
2016-03-26T10:33:52.180Z,46.91
2016-03-26T10:34:52.183Z,47.1
2016-03-26T10:35:52.169Z,47.27
2016-03-26T10:36:52.172Z,46.98
2016-03-26T10:37:52.175Z,46.62
2016-03-26T10:38:52.162Z,46.62
2016-03-26T10:39:52.180Z,46.72
2016-03-26T10:40:52.168Z,46.36
2016-03-26T10:41:52.171Z,46.38
2016-03-26T10:42:52.162Z,45.42
2016-03-26T10:43:52.165Z,44.28
2016-03-26T10:44:52.167Z,44.07
2016-03-26T10:45:52.170Z,45.01
2016-03-26T10:46:52.157Z,44.72
2016-03-26T10:47:52.160Z,43.97
2016-03-26T10:48:52.162Z,44.96
2016-03-26T10:49:52.165Z,44.67
2016-03-26T10:50:52.167Z,44.24
2016-03-26T10:51:52.156Z,45.25
2016-03-26T10:52:52.173Z,44.53
2016-03-26T10:53:52.145Z,44.45
2016-03-26T10:54:52.163Z,43.8
2016-03-26T10:55:52.150Z,44.43
2016-03-26T10:56:52.153Z,43.88
2016-03-26T10:57:52.156Z,44.07
2016-03-26T10:58:52.174Z,43.78
2016-03-26T10:59:52.146Z,43.13
2016-03-26T11:00:52.148Z,43.44
2016-03-26T11:01:52.151Z,42.02
2016-03-26T11:02:52.138Z,42.38
2016-03-26T11:03:52.140Z,43.15
2016-03-26T11:04:52.143Z,42.76
2016-03-26T11:05:52.146Z,42.11
2016-03-26T11:06:52.149Z,42.88
2016-03-26T11:07:52.135Z,43.32
2016-03-26T11:08:52.138Z,42.84
2016-03-26T11:09:52.141Z,43.15
2016-03-26T11:10:52.144Z,43.24
2016-03-26T11:11:52.131Z,42.69
2016-03-26T11:12:52.134Z,42.3
2016-03-26T11:13:52.136Z,42.3
2016-03-26T11:14:52.139Z,42.96
2016-03-26T11:15:52.142Z,42.97
2016-03-26T11:16:52.129Z,42.52
2016-03-26T11:17:52.131Z,41.75
2016-03-26T11:18:52.134Z,41.63
2016-03-26T11:19:52.137Z,42.69
2016-03-26T11:20:52.139Z,43.92
2016-03-26T11:21:52.126Z,44.07
2016-03-26T11:22:52.129Z,44.19
2016-03-26T11:23:52.131Z,42.3
2016-03-26T11:24:52.134Z,43.07
2016-03-26T11:25:52.137Z,43.34
2016-03-26T11:26:52.124Z,43.9
2016-03-26T11:27:52.127Z,43.23
2016-03-26T11:28:52.130Z,42.79
2016-03-26T11:29:52.133Z,43.37
2016-03-26T11:30:52.135Z,42.42
2016-03-26T11:31:52.122Z,42.63
2016-03-26T11:32:52.124Z,41.96
2016-03-26T11:33:52.127Z,41.86
2016-03-26T11:34:52.130Z,41.2
2016-03-26T11:35:52.118Z,41.33
2016-03-26T11:36:52.120Z,41.33
2016-03-26T11:37:52.138Z,40.45
2016-03-26T11:38:52.125Z,40.92
2016-03-26T11:39:52.129Z,40.53
2016-03-26T11:40:52.115Z,41.13
2016-03-26T11:41:52.118Z,41.03
2016-03-26T11:42:52.120Z,40.84
2016-03-26T11:43:51.967Z,41.33
2016-03-26T11:44:52.125Z,41.42
2016-03-26T11:45:52.129Z,40.82
2016-03-26T11:46:52.115Z,42.23
2016-03-26T11:47:52.118Z,42.59
2016-03-26T11:48:52.120Z,42.15
2016-03-26T11:49:52.124Z,41.3
2016-03-26T11:50:52.126Z,40.26
2016-03-26T11:51:52.114Z,40.05
2016-03-26T11:52:52.116Z,39.45
2016-03-26T11:53:52.119Z,39.86
2016-03-26T11:54:52.121Z,40.15
2016-03-26T11:55:52.125Z,40.09
2016-03-26T11:56:52.127Z,39.69
2016-03-26T11:57:52.114Z,40.26
2016-03-26T11:58:52.116Z,39.97
2016-03-26T11:59:52.120Z,40.17
2016-03-26T12:00:52.122Z,39.95
2016-03-26T12:01:52.125Z,40.45
2016-03-26T12:02:52.111Z,39.2
2016-03-26T12:03:52.114Z,39.39
2016-03-26T12:04:52.116Z,40.34
2016-03-26T12:05:52.119Z,41.14
2016-03-26T12:06:52.122Z,40.86
2016-03-26T12:07:52.125Z,41.82
2016-03-26T12:08:52.112Z,42.88
2016-03-26T12:09:52.115Z,43.17
2016-03-26T12:10:52.118Z,43.92
2016-03-26T12:11:52.121Z,43.24
2016-03-26T12:12:52.123Z,42.69
2016-03-26T12:13:52.109Z,42.52
2016-03-26T12:14:52.112Z,41.86
2016-03-26T12:15:52.115Z,41.6
2016-03-26T12:16:52.118Z,41.77
2016-03-26T12:17:52.121Z,41.94
2016-03-26T12:18:52.123Z,41.65
2016-03-26T12:19:52.126Z,41.38
2016-03-26T12:20:52.129Z,41.28
2016-03-26T12:21:52.117Z,41.38
2016-03-26T12:22:52.119Z,41.5
2016-03-26T12:23:52.106Z,40.72
2016-03-26T12:24:52.108Z,40.15
2016-03-26T12:25:52.111Z,40.72
2016-03-26T12:26:52.113Z,41.84
2016-03-26T12:27:52.117Z,40.9
2016-03-26T12:28:52.103Z,40.51
2016-03-26T12:29:52.106Z,40.92
2016-03-26T12:30:52.108Z,41.84
2016-03-26T12:31:52.112Z,41.75
2016-03-26T12:32:52.098Z,41.75
2016-03-26T12:33:52.102Z,41.86
2016-03-26T12:34:52.104Z,40.82
2016-03-26T12:35:52.107Z,41.94
2016-03-26T12:36:52.109Z,42.54
2016-03-26T12:37:52.097Z,42.52
2016-03-26T12:38:52.099Z,42.9
2016-03-26T12:39:52.102Z,43
2016-03-26T12:40:52.104Z,42.49
2016-03-26T12:41:52.107Z,43.27
2016-03-26T12:42:52.094Z,43.07
2016-03-26T12:43:52.097Z,41.86
2016-03-26T12:44:52.099Z,41.96
2016-03-26T12:45:52.102Z,41.2
2016-03-26T12:46:52.090Z,41.6
2016-03-26T12:47:52.092Z,41.84
2016-03-26T12:48:52.095Z,41.75
2016-03-26T12:49:52.098Z,41.65
2016-03-26T12:50:52.100Z,41.75
2016-03-26T12:51:52.103Z,42.83
2016-03-26T12:52:52.090Z,42.44
2016-03-26T12:53:52.092Z,42.8
2016-03-26T12:54:52.095Z,42.79